Latest Weather Observations for Cape Leeuwin

IDW60801

Issued at 10:34 am WST Thursday 23 February 2017 (issued every 30 minutes, with the page automatically refreshed every 10 minutes)

About weather observations | Map of weather stations | Latest weather observations for WA | Other Formats
Station Details ID: 009518 Name: CAPE LEEUWIN Lat: -34.37 Lon: 115.14 Height: 13.0 m
Data from the previous 72 hours. | See also: Recent months at Cape Leeuwin
Date/Time
WST
Temp
°C
App
Temp
°C
Dew
Point
°C
Rel
Hum
%
Delta-T
°C
Wind Press
QNH
hPa
Press
MSL
hPa
Rain since
9am
mm
Dir  Spd
km/h
Gust
km/h
Spd
kts
Gust
kts
23/10:30am 21.3 19.5 12.2 56 5.1 SE 13 17 7 9 1023.8 1023.8 0.0
23/10:00am 20.2 18.1 11.3 56 4.9 ESE 13 15 7 8 1023.8 1023.8 0.0
23/09:30am 19.9 18.3 11.5 58 4.6 ESE 11 15 6 8 1023.7 1023.7 0.0
23/09:00am 19.4 17.9 12.0 62 4.1 SE 11 15 6 8 1023.7 1023.7 0.0
23/08:30am 18.7 16.7 11.6 63 3.9 SE 13 17 7 9 1023.5 1023.5 0.0
23/08:00am 18.4 17.6 11.6 64 3.7 SSE 7 13 4 7 1023.4 1023.4 0.0
23/07:30am 18.7 17.5 11.6 63 3.9 SSE 9 13 5 7 1023.3 1023.3 0.0
23/07:00am 17.3 16.6 12.0 71 2.9 SSW 7 11 4 6 1023.0 1023.0 0.0
23/06:30am 16.7 15.5 11.5 71 2.8 SSW 9 13 5 7 1022.7 1022.7 0.0
23/06:00am 16.9 16.1 11.7 71 2.8 SW 7 11 4 6 1022.4 1022.4 0.0
23/05:30am 16.5 15.9 11.7 73 2.6 SW 6 9 3 5 1022.1 1022.1 0.0
23/05:00am 16.6 16.2 11.2 70 2.9 S 4 7 2 4 1021.7 1021.7 0.0
23/04:30am 16.4 15.6 11.2 71 2.8 SSE 6 7 3 4 1021.4 1021.4 0.0
23/04:00am 16.5 16.5 11.3 71 2.8 SSE 2 6 1 3 1021.3 1021.3 0.0
23/03:30am 16.2 15.4 11.2 72 2.7 SW 6 9 3 5 1021.3 1021.3 0.0
23/03:00am 16.5 15.2 11.1 70 2.9 SSW 9 11 5 6 1021.4 1021.4 0.0
23/02:30am 17.4 15.7 11.3 67 3.3 SSW 11 15 6 8 1021.4 1021.4 0.0
23/02:00am 17.7 15.3 11.4 66 3.4 WSW 15 20 8 11 1021.4 1021.4 0.0
23/01:30am 17.9 15.2 11.7 67 3.4 WSW 17 20 9 11 1021.4 1021.4 0.0
23/01:00am 17.8 15.8 11.5 66 3.4 SSW 13 19 7 10 1021.4 1021.4 0.0
23/12:30am 18.2 16.7 11.8 66 3.5 W 11 15 6 8 1021.4 1021.4 0.0
23/12:00am 18.2 15.6 12.0 67 3.4 WSW 17 24 9 13 1021.6 1021.6 0.0
 
Date/Time
WST
Temp
°C
App
Temp
°C
Dew
Point
°C
Rel
Hum
%
Delta-T
°C
Wind Press
QNH
hPa
Press
MSL
hPa
Rain since
9am
mm
Dir  Spd
km/h
Gust
km/h
Spd
kts
Gust
kts
22/11:30pm 18.5 15.7 12.6 68 3.3 WSW 19 22 10 12 1021.3 1021.3 0.0
22/11:00pm 18.6 16.8 12.1 66 3.6 W 13 17 7 9 1021.3 1021.3 0.0
22/10:30pm 18.5 16.5 12.8 69 3.2 WSW 15 20 8 11 1021.4 1021.4 0.0
22/10:00pm 18.5 15.9 13.8 74 2.7 SW 20 26 11 14 1021.6 1021.6 0.0
22/09:30pm 18.3 16.7 13.9 75 2.5 WSW 15 19 8 10 1021.9 1021.9 0.0
22/09:00pm 18.1 17.8 15.4 84 1.6 NW 11 13 6 7 1021.8 1021.8 0.0
22/08:30pm 17.8 17.2 15.6 87 1.3 W 13 20 7 11 1021.8 1021.8 0.0
22/08:00pm 18.4 16.8 15.0 80 2.0 SW 17 20 9 11 1021.6 1021.6 0.0
22/07:30pm 18.6 17.1 15.4 81 1.9 SW 17 20 9 11 1021.4 1021.4 0.0
22/07:00pm 18.3 16.2 15.2 82 1.8 SW 20 26 11 14 1021.1 1021.1 0.0
22/06:30pm 18.8 16.9 14.3 75 2.6 WSW 17 20 9 11 1020.9 1020.8 0.0
22/06:00pm 18.9 17.2 14.6 76 2.5 WSW 17 22 9 12 1020.8 1020.7 0.0
22/05:30pm 18.9 17.1 15.5 80 2.0 W 19 22 10 12 1020.8 1020.7 0.0
22/05:00pm 18.7 16.8 15.3 80 2.0 W 19 24 10 13 1020.8 1020.7 0.0
22/04:30pm 18.7 16.6 15.1 79 2.1 WNW 20 26 11 14 1020.7 1020.6 0.0
22/04:00pm 20.3 18.0 15.6 74 2.8 NW 22 26 12 14 1020.6 1020.5 0.0
22/03:30pm 19.9 16.9 14.8 72 3.0 WNW 24 28 13 15 1020.5 1020.4 0.0
22/03:00pm 20.2 17.2 14.9 71 3.1 NW 24 28 13 15 1020.5 1020.4 0.0
22/02:30pm 20.2 17.4 15.3 73 2.9 NW 24 28 13 15 1020.8 1020.7 0.0
22/02:00pm 19.8 16.1 15.0 74 2.8 WNW 28 30 15 16 1021.0 1021.0 0.0
22/01:30pm 20.1 16.6 14.4 69 3.3 WNW 26 30 14 16 1021.1 1021.1 0.0
22/01:00pm 19.6 15.9 14.0 70 3.2 WNW 26 30 14 16 1021.2 1021.2 0.0
22/12:30pm 19.9 16.7 13.2 65 3.8 WNW 22 28 12 15 1021.2 1021.2 0.0
22/12:00pm 20.7 18.1 13.7 64 4.0 W 20 26 11 14 1021.2 1021.2 0.0
22/11:30am 18.9 15.7 14.2 74 2.7 WSW 24 30 13 16 1021.1 1021.1 0.0
22/11:00am 19.5 16.5 13.7 69 3.3 W 22 33 12 18 1021.2 1021.2 0.0
22/10:30am 20.0 17.6 12.5 62 4.2 W 17 20 9 11 1021.2 1021.2 0.0
22/10:00am 19.2 16.0 13.2 68 3.4 W 22 26 12 14 1021.2 1021.2 0.0
22/09:30am 18.8 15.7 13.5 71 3.0 W 22 28 12 15 1020.9 1020.8 0.0
22/09:00am 18.2 15.8 12.6 70 3.1 WNW 17 22 9 12 1020.7 1020.6 0.0
22/08:30am 17.4 14.5 12.3 72 2.8 W 19 20 10 11 1020.7 1020.6 0.0
22/08:00am 17.4 14.0 13.7 79 2.1 WSW 24 35 13 19 1020.3 1020.2 0.0
22/07:30am 17.6 15.0 13.7 78 2.2 W 20 24 11 13 1020.2 1020.1 0.0
22/07:00am 17.2 13.7 13.5 79 2.1 W 24 30 13 16 1020.0 1019.9 0.0
22/06:30am 16.9 13.5 12.4 75 2.5 SW 22 28 12 15 1019.5 1019.4 0.0
22/06:00am 16.7 13.2 13.5 81 1.8 WSW 24 33 13 18 1019.2 1019.1 0.0
22/05:30am 17.1 14.1 12.4 74 2.6 WSW 20 26 11 14 1019.1 1019.0 0.0
22/05:00am 16.9 13.9 12.6 76 2.4 WSW 20 26 11 14 1018.9 1018.8 0.0
22/04:30am 16.7 12.9 12.3 75 2.4 SW 24 32 13 17 1018.8 1018.7 0.0
22/04:00am 17.0 12.0 12.3 74 2.6 WSW 30 37 16 20 1018.6 1018.5 0.0
22/03:30am 16.8 12.5 12.0 73 2.6 WSW 26 35 14 19 1018.6 1018.5 0.0
22/03:00am 16.4 13.6 12.6 78 2.1 SSW 19 28 10 15 1018.6 1018.5 0.0
22/02:30am 17.1 12.7 11.6 70 3.0 WSW 26 30 14 16 1018.4 1018.3 0.0
22/02:00am 17.1 14.0 10.3 64 3.6 SW 17 20 9 11 1018.3 1018.2 0.0
22/01:30am 17.1 12.8 9.4 60 4.0 SW 22 28 12 15 1018.4 1018.3 0.0
22/01:00am 17.3 12.6 10.5 64 3.6 SW 26 33 14 18 1018.6 1018.5 0.0
22/12:30am 17.4 13.2 11.1 66 3.4 SW 24 32 13 17 1018.9 1018.8 0.0
22/12:00am 17.1 12.0 9.2 59 4.1 SW 26 33 14 18 1018.9 1018.8 0.0
 
Date/Time
WST
Temp
°C
App
Temp
°C
Dew
Point
°C
Rel
Hum
%
Delta-T
°C
Wind Press
QNH
hPa
Press
MSL
hPa
Rain since
9am
mm
Dir  Spd
km/h
Gust
km/h
Spd
kts
Gust
kts
21/11:30pm 17.1 12.9 9.6 61 3.9 SSW 22 28 12 15 1018.9 1018.8 0.0
21/11:00pm 17.2 12.1 9.3 59 4.1 SW 26 32 14 17 1019.0 1018.9 0.0
21/10:30pm 17.0 11.9 9.1 59 4.1 SSW 26 33 14 18 1019.0 1018.9 0.0
21/10:00pm 17.0 12.5 10.2 64 3.6 SSW 24 32 13 17 1019.1 1019.0 0.0
21/09:30pm 17.3 12.3 11.0 66 3.4 SW 28 37 15 20 1018.9 1018.8 0.0
21/09:00pm 17.0 12.1 8.4 57 4.4 SW 24 30 13 16 1018.9 1018.8 0.0
21/08:30pm 16.8 10.7 8.1 56 4.4 SSW 30 39 16 21 1018.8 1018.7 0.0
21/08:00pm 17.0 10.7 8.8 58 4.2 SW 32 39 17 21 1018.3 1018.2 0.0
21/07:30pm 16.9 10.6 7.5 54 4.7 SW 30 39 16 21 1018.2 1018.1 0.0
21/07:00pm 16.7 9.4 7.3 54 4.7 SW 35 41 19 22 1017.9 1017.8 0.0
21/06:30pm 17.3 9.9 8.5 56 4.5 SW 37 46 20 25 1017.4 1017.3 0.0
21/06:00pm 17.8 11.4 9.2 57 4.5 SW 33 43 18 23 1017.0 1016.9 0.0
21/05:30pm 17.8 11.4 9.2 57 4.5 SW 33 41 18 22 1016.7 1016.6 0.0
21/05:00pm 18.7 10.8 6.4 44 6.1 SW 37 46 20 25 1016.4 1016.3 0.0
21/04:30pm 18.6 11.6 8.5 52 5.2 SW 35 44 19 24 1016.4 1016.3 0.0
21/04:00pm 18.8 11.6 9.3 54 5.0 SW 37 46 20 25 1016.1 1016.0 0.0
21/03:30pm 17.8 10.5 10.3 61 4.0 SW 39 50 21 27 1015.8 1015.7 0.0
21/03:00pm 19.1 11.2 7.8 48 5.8 WSW 39 50 21 27 1015.7 1015.6 0.0
21/02:30pm 18.4 10.5 7.8 50 5.4 SW 39 48 21 26 1015.6 1015.5 0.0
21/02:00pm 18.8 10.3 8.6 51 5.3 SW 43 54 23 29 1015.5 1015.4 0.0
21/01:30pm 19.0 10.3 8.6 51 5.4 WSW 44 54 24 29 1015.4 1015.3 0.0
21/01:00pm 18.2 9.5 7.8 50 5.3 SW 43 54 23 29 1015.2 1015.1 0.0
21/12:30pm 19.1 10.5 8.3 49 5.6 WSW 43 52 23 28 1014.7 1014.6 0.0
21/12:00pm 18.2 9.5 8.5 53 5.0 SW 44 54 24 29 1014.5 1014.4 0.0
21/11:30am 16.9 8.7 10.3 65 3.5 SW 44 57 24 31 1014.5 1014.4 0.0
21/11:03am 18.4 10.3 8.8 53 5.0 SW 41 59 22 32 1014.3 1014.2 0.0
21/11:00am 18.5 10.7 8.2 51 5.3 SW 39 50 21 27 1014.3 1014.2 0.0
21/10:30am 18.1 10.2 9.3 56 4.6 WSW 41 52 22 28 1014.4 1014.3 0.0
21/10:00am 17.3 8.9 9.0 58 4.3 WSW 43 56 23 30 1014.0 1013.9 0.0
21/09:30am 17.5 8.8 7.8 53 4.9 SW 43 52 23 28 1013.9 1013.8 0.0
21/09:00am 17.4 8.7 8.4 55 4.6 SW 44 54 24 29 1013.6 1013.5 2.6
21/08:30am 17.3 8.0 9.2 59 4.2 WSW 48 63 26 34 1013.1 1013.0 2.6
21/08:00am 16.7 7.1 7.8 55 4.5 WSW 48 57 26 31 1012.8 1012.7 2.6
21/07:30am 16.6 7.3 9.1 61 3.9 WSW 48 59 26 32 1012.3 1012.2 2.6
21/07:00am 16.3 6.3 7.7 56 4.3 SW 50 61 27 33 1011.8 1011.7 2.6
21/06:30am 16.4 7.0 8.6 60 4.0 WSW 48 61 26 33 1011.4 1011.3 2.6
21/06:00am 15.8 7.0 9.4 65 3.3 WSW 46 59 25 32 1010.9 1010.8 2.6
21/05:30am 16.4 7.4 9.0 61 3.8 WSW 46 57 25 31 1010.5 1010.4 2.2
21/05:00am 16.7 6.3 9.2 61 3.9 WSW 54 69 29 37 1010.1 1010.0 2.2
21/04:30am 16.8 7.9 9.1 60 4.0 WSW 46 59 25 32 1009.7 1009.6 2.2
21/04:00am 16.6 6.2 9.1 61 3.9 SW 54 65 29 35 1009.5 1009.4 2.2
21/03:37am 16.7 8.9 9.6 63 3.7 WSW 41 61 22 33 1009.4 1009.3 2.2
21/03:30am 16.4 9.2 11.8 74 2.5 WSW 41 52 22 28 1009.4 1009.3 2.2
21/03:00am 16.1 6.4 11.9 76 2.3 SW 54 63 29 34 1009.2 1009.1 2.2
21/02:30am 16.7 8.6 12.2 75 2.5 WSW 46 56 25 30 1009.1 1009.0 2.2
21/02:00am 15.6 7.2 13.5 87 1.2 WSW 50 59 27 32 1009.5 1009.4 2.2
21/01:30am 15.9 9.6 14.7 93 0.7 WSW 41 48 22 26 1009.3 1009.2 1.8
21/01:00am 16.4 8.4 14.7 90 1.0 W 50 67 27 36 1009.4 1009.3 0.4
21/12:57am 16.8 9.0 14.2 85 1.5 WNW 48 61 26 33 1009.5 1009.4 0.2
21/12:30am 17.5 10.7 14.4 82 1.8 WNW 43 48 23 26 1009.7 1009.6 0.2
21/12:00am 16.5 11.0 13.7 83 1.6 WNW 35 41 19 22 1010.2 1010.1 0.2
 
Date/Time
WST
Temp
°C
App
Temp
°C
Dew
Point
°C
Rel
Hum
%
Delta-T
°C
Wind Press
QNH
hPa
Press
MSL
hPa
Rain since
9am
mm
Dir  Spd
km/h
Gust
km/h
Spd
kts
Gust
kts
20/11:30pm 18.7 12.1 11.2 61 4.1 WNW 37 44 20 24 1010.2 1010.1 0.0
20/11:00pm 18.6 11.8 10.8 60 4.2 WNW 37 43 20 23 1010.6 1010.5 0.0
20/10:30pm 18.4 11.8 11.5 64 3.8 WNW 37 44 20 24 1011.1 1011.0 0.0
20/10:00pm 18.3 11.5 11.8 66 3.6 W 39 46 21 25 1011.1 1011.0 0.0
20/09:30pm 18.2 11.9 11.0 63 3.9 W 35 43 19 23 1011.6 1011.5 0.0
20/09:00pm 18.0 12.5 12.0 68 3.3 W 32 41 17 22 1011.6 1011.5 0.0
20/08:30pm 17.9 12.6 10.0 60 4.2 W 28 33 15 18 1011.6 1011.5 0.0
20/08:00pm 18.2 11.5 9.5 57 4.6 W 35 46 19 25 1011.9 1011.8 0.0
20/07:30pm 17.8 11.8 10.9 64 3.7 W 33 39 18 21 1011.9 1011.8 0.0
20/07:00pm 18.1 11.4 11.1 63 3.8 WSW 37 43 20 23 1012.2 1012.1 0.0
20/06:30pm 18.2 11.8 10.8 62 4.0 WSW 35 43 19 23 1011.9 1011.8 0.0
20/06:00pm 18.5 12.9 11.4 63 3.9 WSW 32 37 17 20 1011.3 1011.2 0.0
20/05:30pm 18.9 13.3 11.6 62 4.0 WSW 32 39 17 21 1011.6 1011.5 0.0
20/05:00pm 18.4 13.5 11.2 63 3.9 WSW 28 33 15 18 1011.6 1011.5 0.0
20/04:30pm 19.1 15.1 11.7 62 4.1 WSW 24 32 13 17 1011.7 1011.6 0.0
20/04:00pm 19.4 17.1 11.6 60 4.3 WSW 15 22 8 12 1011.9 1011.8 0.0
20/03:30pm 19.0 15.7 11.7 62 4.0 WSW 20 32 11 17 1012.3 1012.2 0.0
20/03:00pm 18.4 15.1 12.7 69 3.2 SW 22 28 12 15 1012.5 1012.4 0.0
20/02:30pm 18.7 15.1 13.0 69 3.2 SW 24 30 13 16 1012.6 1012.5 0.0
20/02:00pm 19.4 18.2 14.0 71 3.1 SSW 13 19 7 10 1012.8 1012.7 0.0
20/01:30pm 18.0 15.9 15.3 84 1.6 SW 20 26 11 14 1013.0 1012.9 0.0
20/01:00pm 18.9 15.8 14.4 75 2.6 SW 24 32 13 17 1013.2 1013.1 0.0
20/12:30pm 19.2 16.5 14.6 74 2.7 SSW 22 26 12 14 1013.3 1013.2 0.0
20/12:00pm 18.6 16.4 15.9 84 1.6 SSW 22 30 12 16 1013.6 1013.5 0.0
20/11:30am 18.7 17.7 16.5 87 1.3 S 17 24 9 13 1013.8 1013.7 0.0
20/11:00am 19.5 17.6 15.3 76 2.5 S 19 24 10 13 1014.2 1014.1 0.0

Other Formats:

Comma delimited format used in spreadsheet applications
http://www.bom.gov.au/fwo/IDW60801/IDW60801.94601.axf

JavaScript Object Notation format (JSON) in row-major order
http://www.bom.gov.au/fwo/IDW60801/IDW60801.94601.json